createdAt,value
2022-10-19T00:02:58.371Z,95041.00
2022-10-19T00:07:08.445Z,95048.00
2022-10-19T00:12:03.365Z,95040.00
2022-10-19T00:16:15.029Z,95044.00
2022-10-19T00:20:36.133Z,95039.00
2022-10-19T00:24:38.271Z,95040.00
2022-10-19T00:28:40.718Z,95036.00
2022-10-19T00:32:42.941Z,95037.00
2022-10-19T00:36:48.103Z,95031.00
2022-10-19T00:40:50.049Z,95034.00
2022-10-19T00:44:51.879Z,95036.00
2022-10-19T00:49:00.202Z,95029.00
2022-10-19T00:53:03.634Z,95032.00
2022-10-19T00:57:06.928Z,95030.00
2022-10-19T01:01:11.093Z,95037.00
2022-10-19T01:05:14.539Z,95034.00
2022-10-19T01:09:17.304Z,95031.00
2022-10-19T01:13:50.430Z,95041.00
2022-10-19T01:18:01.397Z,95039.00
2022-10-19T01:22:04.385Z,95042.00
2022-10-19T01:26:43.670Z,95042.00
2022-10-19T01:31:14.054Z,95037.00
2022-10-19T01:35:27.453Z,95035.00
2022-10-19T01:39:41.322Z,95028.00
2022-10-19T01:43:57.130Z,95028.00
2022-10-19T01:48:16.531Z,95032.00
2022-10-19T01:52:20.883Z,95038.00
2022-10-19T01:56:27.349Z,95025.00
2022-10-19T02:00:31.637Z,95025.00
2022-10-19T02:04:35.541Z,95022.00
2022-10-19T02:09:21.294Z,95019.00
2022-10-19T02:13:24.762Z,95012.00
2022-10-19T02:22:34.427Z,95000.00
2022-10-19T02:27:04.832Z,94996.00
2022-10-19T02:31:26.590Z,94998.00
2022-10-19T02:41:49.158Z,94990.00
2022-10-19T02:46:08.777Z,94990.00
2022-10-19T02:50:11.567Z,94980.00
2022-10-19T02:54:14.505Z,94976.00
2022-10-19T02:58:16.629Z,94985.00
2022-10-19T03:02:21.741Z,94978.00
2022-10-19T03:07:26.228Z,94982.00
2022-10-19T03:11:33.385Z,94978.00
2022-10-19T03:15:35.340Z,94976.00
2022-10-19T03:19:51.688Z,94975.00
2022-10-19T03:23:55.816Z,94985.00
2022-10-19T03:27:57.780Z,94989.00
2022-10-19T03:32:26.366Z,94977.00
2022-10-19T03:36:38.154Z,94974.00
2022-10-19T03:40:40.287Z,94979.00
2022-10-19T03:44:44.208Z,94975.00
2022-10-19T03:48:48.794Z,94983.00
2022-10-19T03:52:52.970Z,94979.00
2022-10-19T03:56:54.890Z,94982.00
2022-10-19T04:00:56.752Z,94978.00
2022-10-19T04:04:58.629Z,94974.00
2022-10-19T04:09:26.384Z,94959.00
2022-10-19T04:13:36.264Z,94966.00
2022-10-19T04:17:40.244Z,94951.00
2022-10-19T04:21:44.333Z,94954.00
2022-10-19T04:25:46.175Z,94946.00
2022-10-19T04:29:48.059Z,94942.00
2022-10-19T04:33:49.923Z,94949.00
2022-10-19T04:37:51.914Z,94948.00
2022-10-19T04:41:53.933Z,94947.00
2022-10-19T04:45:55.875Z,94950.00
2022-10-19T04:49:57.704Z,94942.00
2022-10-19T04:54:00.083Z,94938.00
2022-10-19T04:58:02.095Z,94946.00
2022-10-19T05:02:04.025Z,94947.00
2022-10-19T05:06:06.844Z,94955.00
2022-10-19T05:10:18.614Z,94958.00
2022-10-19T05:14:20.823Z,94940.00
2022-10-19T05:18:22.740Z,94953.00
2022-10-19T05:22:25.005Z,94946.00
2022-10-19T05:26:27.994Z,94959.00
2022-10-19T05:30:29.940Z,94958.00
2022-10-19T05:34:32.176Z,94955.00
2022-10-19T05:38:34.072Z,94952.00
2022-10-19T05:42:35.914Z,94956.00
2022-10-19T05:46:37.756Z,94952.00
2022-10-19T05:50:39.621Z,94952.00
2022-10-19T05:54:41.508Z,94954.00
2022-10-19T05:58:43.443Z,94952.00
2022-10-19T06:02:45.298Z,94946.00
2022-10-19T06:06:47.315Z,94945.00
2022-10-19T06:11:54.176Z,94942.00
2022-10-19T06:16:07.291Z,94931.00
2022-10-19T06:20:10.593Z,94947.00
2022-10-19T06:24:14.791Z,94932.00
2022-10-19T06:28:21.724Z,94936.00
2022-10-19T06:32:42.327Z,94949.00
2022-10-19T06:37:11.411Z,94962.00
2022-10-19T06:41:41.247Z,94968.00
2022-10-19T06:46:13.086Z,94984.00
2022-10-19T06:50:15.214Z,94973.00
2022-10-19T06:54:17.185Z,94981.00
2022-10-19T06:58:19.015Z,94984.00
2022-10-19T07:02:21.429Z,94979.00
2022-10-19T07:06:27.941Z,94987.00
2022-10-19T07:10:29.961Z,94980.00
2022-10-19T07:14:31.920Z,94981.00
2022-10-19T07:18:40.770Z,94985.00
2022-10-19T07:23:09.423Z,94990.00
2022-10-19T07:27:11.393Z,94992.00
2022-10-19T07:31:15.605Z,95005.00
2022-10-19T07:35:17.604Z,95003.00
2022-10-19T07:39:21.861Z,95000.00
2022-10-19T07:43:24.992Z,95005.00
2022-10-19T07:47:26.930Z,94993.00
2022-10-19T07:51:56.763Z,94992.00
2022-10-19T07:56:54.309Z,94997.00
2022-10-19T08:01:09.812Z,94993.00
2022-10-19T08:05:55.253Z,94997.00
2022-10-19T08:10:23.462Z,94995.00
2022-10-19T08:14:26.558Z,94990.00
2022-10-19T08:18:33.779Z,95000.00
2022-10-19T08:22:36.043Z,95002.00
2022-10-19T08:27:03.762Z,95002.00
2022-10-19T08:31:32.212Z,95002.00
2022-10-19T08:35:37.120Z,95005.00
2022-10-19T08:39:42.290Z,95005.00
2022-10-19T08:44:29.046Z,94998.00
2022-10-19T08:48:36.447Z,94997.00
2022-10-19T08:52:39.380Z,95000.00
2022-10-19T08:56:59.528Z,95000.00
2022-10-19T09:01:26.264Z,95001.00
2022-10-19T09:05:46.916Z,95009.00
2022-10-19T09:10:14.847Z,95001.00
2022-10-19T09:14:46.759Z,95004.00
2022-10-19T09:19:33.202Z,95000.00
2022-10-19T09:23:40.476Z,95005.00
2022-10-19T09:27:52.960Z,94998.00
2022-10-19T09:32:18.928Z,95010.00
2022-10-19T09:36:39.210Z,94996.00
2022-10-19T09:40:47.180Z,95003.00
2022-10-19T09:44:51.306Z,95006.00
2022-10-19T09:48:54.450Z,95004.00
2022-10-19T09:53:05.923Z,95005.00
2022-10-19T09:57:42.083Z,95012.00
2022-10-19T10:01:44.142Z,95012.00
2022-10-19T10:05:48.020Z,95001.00
2022-10-19T10:10:28.180Z,94997.00
2022-10-19T10:14:51.830Z,94992.00
2022-10-19T10:19:07.318Z,94994.00
2022-10-19T10:23:24.674Z,94987.00
2022-10-19T10:28:05.060Z,94992.00
2022-10-19T10:32:09.344Z,94989.00
2022-10-19T10:36:11.727Z,94979.00
2022-10-19T10:40:30.018Z,94986.00
2022-10-19T10:44:35.196Z,94982.00
2022-10-19T10:48:53.680Z,94986.00
2022-10-19T10:53:27.736Z,94985.00
2022-10-19T10:57:51.856Z,94998.00
2022-10-19T11:02:28.287Z,94992.00
2022-10-19T11:06:32.422Z,94988.00
2022-10-19T11:10:50.203Z,94980.00
2022-10-19T11:15:03.123Z,94972.00
2022-10-19T11:24:03.137Z,94982.00
2022-10-19T11:29:14.544Z,94979.00
2022-10-19T11:33:52.299Z,94970.00
2022-10-19T11:38:18.708Z,94980.00
2022-10-19T11:43:10.031Z,94958.00
2022-10-19T11:47:53.989Z,94968.00
2022-10-19T11:52:07.433Z,94959.00
2022-10-19T11:56:21.545Z,94955.00
2022-10-19T12:00:50.780Z,94951.00
2022-10-19T12:05:16.552Z,94925.00
2022-10-19T12:09:21.503Z,94928.00
2022-10-19T12:13:39.669Z,94925.00
2022-10-19T12:17:45.161Z,94919.00
2022-10-19T12:21:48.387Z,94923.00
2022-10-19T12:25:51.858Z,94912.00
2022-10-19T12:29:55.295Z,94906.00
2022-10-19T12:34:26.558Z,94905.00
2022-10-19T12:38:34.626Z,94898.00
2022-10-19T12:42:43.228Z,94903.00
2022-10-19T12:46:56.419Z,94889.00
2022-10-19T12:51:03.489Z,94893.00
2022-10-19T12:55:35.762Z,94875.00
2022-10-19T12:59:38.349Z,94878.00
2022-10-19T13:03:43.311Z,94872.00
2022-10-19T13:07:49.269Z,94875.00
2022-10-19T13:12:19.912Z,94860.00
2022-10-19T13:16:30.314Z,94856.00
2022-10-19T13:20:53.204Z,94865.00
2022-10-19T13:25:17.354Z,94870.00
2022-10-19T13:29:26.863Z,94880.00
2022-10-19T13:33:29.098Z,94878.00
2022-10-19T13:37:34.584Z,94877.00
2022-10-19T13:41:36.691Z,94884.00
2022-10-19T13:45:41.324Z,94878.00
2022-10-19T13:50:11.070Z,94881.00
2022-10-19T13:54:45.578Z,94875.00
2022-10-19T13:59:18.634Z,94870.00
2022-10-19T14:03:38.160Z,94865.00
2022-10-19T14:08:25.222Z,94871.00
2022-10-19T14:12:36.902Z,94859.00
2022-10-19T14:17:04.161Z,94854.00
2022-10-19T14:21:08.594Z,94870.00
2022-10-19T14:25:20.938Z,94872.00
2022-10-19T14:29:48.483Z,94875.00
2022-10-19T14:34:00.565Z,94870.00
2022-10-19T14:38:06.480Z,94880.00
2022-10-19T14:42:11.711Z,94875.00
2022-10-19T14:46:34.027Z,94882.00
2022-10-19T14:51:03.797Z,94884.00
2022-10-19T14:55:17.841Z,94878.00
2022-10-19T14:59:55.085Z,94880.00
2022-10-19T15:04:00.476Z,94871.00
2022-10-19T15:08:15.468Z,94875.00
2022-10-19T15:12:42.160Z,94885.00
2022-10-19T15:21:17.848Z,94879.00
2022-10-19T15:25:37.239Z,94884.00
2022-10-19T15:29:40.321Z,94880.00
2022-10-19T15:33:52.400Z,94891.00
2022-10-19T15:38:13.801Z,94894.00
2022-10-19T15:42:44.274Z,94890.00
2022-10-19T15:52:17.206Z,94903.00
2022-10-19T15:56:19.677Z,94893.00
2022-10-19T16:01:26.217Z,94906.00
2022-10-19T16:05:39.603Z,94920.00
2022-10-19T16:09:41.469Z,94910.00
2022-10-19T16:13:43.727Z,94911.00
2022-10-19T16:17:48.802Z,94915.00
2022-10-19T16:22:04.114Z,94918.00
2022-10-19T16:26:14.190Z,94919.00
2022-10-19T16:30:24.511Z,94921.00
2022-10-19T16:34:26.736Z,94931.00
2022-10-19T16:38:29.266Z,94930.00
2022-10-19T16:42:35.090Z,94934.00
2022-10-19T16:46:43.449Z,94940.00
2022-10-19T16:51:17.967Z,94942.00
2022-10-19T16:55:21.225Z,94949.00
2022-10-19T16:59:30.582Z,94955.00
2022-10-19T17:09:49.830Z,94965.00
2022-10-19T17:14:28.987Z,94967.00
2022-10-19T17:18:35.996Z,94977.00
2022-10-19T17:22:52.362Z,94979.00
2022-10-19T17:27:21.612Z,94983.00
2022-10-19T17:32:26.194Z,94993.00
2022-10-19T17:36:33.471Z,94992.00
2022-10-19T17:40:36.042Z,94993.00
2022-10-19T17:44:56.204Z,94998.00
2022-10-19T17:48:58.513Z,94991.00
2022-10-19T17:53:00.875Z,95000.00
2022-10-19T17:57:03.427Z,94995.00
2022-10-19T18:02:03.544Z,95012.00
2022-10-19T18:06:36.114Z,95016.00
2022-10-19T18:10:41.168Z,95011.00
2022-10-19T18:14:44.479Z,95005.00
2022-10-19T18:18:49.878Z,95013.00
2022-10-19T18:22:51.722Z,95014.00
2022-10-19T18:26:54.114Z,95016.00
2022-10-19T18:30:55.985Z,95016.00
2022-10-19T18:34:57.852Z,95012.00
2022-10-19T18:39:05.568Z,95019.00
2022-10-19T18:43:07.427Z,95017.00
2022-10-19T18:47:09.354Z,95015.00
2022-10-19T18:51:11.324Z,95023.00
2022-10-19T18:55:16.904Z,95014.00
2022-10-19T18:59:32.190Z,95019.00
2022-10-19T19:03:35.091Z,95020.00
2022-10-19T19:07:37.183Z,95014.00
2022-10-19T19:11:41.247Z,95019.00
2022-10-19T19:15:45.294Z,95016.00
2022-10-19T19:19:51.546Z,95015.00
2022-10-19T19:23:55.536Z,95012.00
2022-10-19T19:27:57.426Z,95012.00
2022-10-19T19:32:11.628Z,95004.00
2022-10-19T19:36:47.517Z,95010.00
2022-10-19T19:40:50.150Z,95013.00
2022-10-19T19:44:52.030Z,95020.00
2022-10-19T19:49:00.019Z,95022.00
2022-10-19T19:53:02.559Z,95025.00
2022-10-19T19:57:06.239Z,95030.00
2022-10-19T20:01:16.886Z,95026.00
2022-10-19T20:05:19.150Z,95027.00
2022-10-19T20:09:21.032Z,95028.00
2022-10-19T20:13:22.831Z,95029.00
2022-10-19T20:23:26.557Z,95045.00
2022-10-19T20:27:29.599Z,95041.00
2022-10-19T20:32:37.704Z,95049.00
2022-10-19T20:36:40.220Z,95044.00
2022-10-19T20:40:42.075Z,95044.00
2022-10-19T20:50:43.572Z,95035.00
2022-10-19T20:54:48.524Z,95036.00
2022-10-19T20:59:00.117Z,95042.00
2022-10-19T21:03:02.124Z,95037.00
2022-10-19T21:07:05.173Z,95041.00
2022-10-19T21:11:36.197Z,95035.00
2022-10-19T21:15:38.090Z,95028.00
2022-10-19T21:24:10.997Z,95039.00
2022-10-19T21:29:05.546Z,95032.00
2022-10-19T21:33:07.426Z,95044.00
2022-10-19T21:37:14.457Z,95041.00
2022-10-19T21:42:07.603Z,95049.00
2022-10-19T21:47:03.424Z,95035.00
2022-10-19T21:51:23.674Z,95035.00
2022-10-19T21:55:25.564Z,95031.00
2022-10-19T21:59:27.633Z,95031.00
2022-10-19T22:03:29.603Z,95022.00
2022-10-19T22:07:31.474Z,95010.00
2022-10-19T22:11:33.654Z,95021.00
2022-10-19T22:15:39.967Z,95017.00
2022-10-19T22:25:41.419Z,95012.00
2022-10-19T22:30:05.535Z,95012.00
2022-10-19T22:35:13.611Z,94998.00
2022-10-19T22:39:16.529Z,95004.00
2022-10-19T22:43:18.766Z,95003.00
2022-10-19T22:47:21.691Z,94998.00
2022-10-19T22:51:23.649Z,95000.00
2022-10-19T22:55:25.765Z,94992.00
2022-10-19T22:59:42.151Z,94991.00
2022-10-19T23:03:44.562Z,94992.00
2022-10-19T23:13:16.845Z,94988.00
2022-10-19T23:17:44.521Z,94989.00
2022-10-19T23:21:46.493Z,94986.00
2022-10-19T23:26:08.838Z,94985.00
2022-10-19T23:30:11.147Z,94982.00
2022-10-19T23:34:16.668Z,94981.00
2022-10-19T23:38:18.959Z,94961.00
2022-10-19T23:42:26.686Z,94968.00
2022-10-19T23:46:35.816Z,94962.00
2022-10-19T23:50:37.672Z,94958.00
2022-10-19T23:54:39.611Z,94956.00
2022-10-19T23:59:09.895Z,94958.00
